sensor_id;sensor_type;location;lat;lon;timestamp;P1;durP1;ratioP1;P2;durP2;ratioP2
5285;SDS011;2665;53.112;7.358;2022-09-21T00:01:29;1.87;;;0.80;;
5285;SDS011;2665;53.112;7.358;2022-09-21T00:03:57;2.17;;;1.07;;
5285;SDS011;2665;53.112;7.358;2022-09-21T00:06:24;2.43;;;1.00;;
5285;SDS011;2665;53.112;7.358;2022-09-21T00:08:50;1.90;;;0.70;;
5285;SDS011;2665;53.112;7.358;2022-09-21T00:11:19;2.53;;;1.00;;
5285;SDS011;2665;53.112;7.358;2022-09-21T00:13:45;1.60;;;0.70;;
5285;SDS011;2665;53.112;7.358;2022-09-21T00:16:12;2.67;;;0.80;;
5285;SDS011;2665;53.112;7.358;2022-09-21T00:18:38;2.30;;;1.10;;
5285;SDS011;2665;53.112;7.358;2022-09-21T00:21:07;4.23;;;0.80;;
5285;SDS011;2665;53.112;7.358;2022-09-21T00:23:34;2.00;;;0.90;;
5285;SDS011;2665;53.112;7.358;2022-09-21T00:26:05;2.00;;;0.87;;
5285;SDS011;2665;53.112;7.358;2022-09-21T00:28:31;1.90;;;1.10;;
5285;SDS011;2665;53.112;7.358;2022-09-21T00:31:01;1.97;;;0.90;;
5285;SDS011;2665;53.112;7.358;2022-09-21T00:33:27;2.00;;;0.90;;
5285;SDS011;2665;53.112;7.358;2022-09-21T00:35:53;3.10;;;0.90;;
5285;SDS011;2665;53.112;7.358;2022-09-21T00:38:19;1.90;;;0.80;;
5285;SDS011;2665;53.112;7.358;2022-09-21T00:40:45;2.10;;;0.90;;
5285;SDS011;2665;53.112;7.358;2022-09-21T00:43:15;2.10;;;1.00;;
5285;SDS011;2665;53.112;7.358;2022-09-21T00:45:42;3.10;;;0.80;;
5285;SDS011;2665;53.112;7.358;2022-09-21T00:48:08;1.80;;;0.90;;
5285;SDS011;2665;53.112;7.358;2022-09-21T00:50:35;2.00;;;0.83;;
5285;SDS011;2665;53.112;7.358;2022-09-21T00:53:04;2.27;;;1.07;;
5285;SDS011;2665;53.112;7.358;2022-09-21T00:55:32;2.73;;;1.27;;
5285;SDS011;2665;53.112;7.358;2022-09-21T00:58:02;1.80;;;1.10;;
5285;SDS011;2665;53.112;7.358;2022-09-21T01:00:32;4.27;;;1.37;;
5285;SDS011;2665;53.112;7.358;2022-09-21T01:02:58;3.83;;;1.30;;
5285;SDS011;2665;53.112;7.358;2022-09-21T01:05:25;1.80;;;0.90;;
5285;SDS011;2665;53.112;7.358;2022-09-21T01:07:52;2.20;;;0.90;;
5285;SDS011;2665;53.112;7.358;2022-09-21T01:10:21;2.20;;;1.10;;
5285;SDS011;2665;53.112;7.358;2022-09-21T01:30:44;2.00;;;0.70;;
5285;SDS011;2665;53.112;7.358;2022-09-21T01:33:14;1.60;;;0.60;;
5285;SDS011;2665;53.112;7.358;2022-09-21T01:35:46;1.70;;;0.70;;
5285;SDS011;2665;53.112;7.358;2022-09-21T01:38:17;1.80;;;0.60;;
5285;SDS011;2665;53.112;7.358;2022-09-21T01:40:49;1.97;;;0.70;;
5285;SDS011;2665;53.112;7.358;2022-09-21T01:43:21;1.90;;;0.70;;
5285;SDS011;2665;53.112;7.358;2022-09-21T01:45:49;3.30;;;0.80;;
5285;SDS011;2665;53.112;7.358;2022-09-21T01:48:17;2.90;;;1.10;;
5285;SDS011;2665;53.112;7.358;2022-09-21T01:50:48;2.27;;;1.10;;
5285;SDS011;2665;53.112;7.358;2022-09-21T01:53:35;2.40;;;1.30;;
5285;SDS011;2665;53.112;7.358;2022-09-21T01:56:17;5.07;;;1.83;;
5285;SDS011;2665;53.112;7.358;2022-09-21T01:58:45;2.57;;;1.40;;
5285;SDS011;2665;53.112;7.358;2022-09-21T02:01:14;2.23;;;1.27;;
5285;SDS011;2665;53.112;7.358;2022-09-21T02:03:42;2.80;;;1.27;;
5285;SDS011;2665;53.112;7.358;2022-09-21T02:06:09;2.27;;;1.30;;
5285;SDS011;2665;53.112;7.358;2022-09-21T02:08:36;2.83;;;1.43;;
5285;SDS011;2665;53.112;7.358;2022-09-21T02:11:03;2.20;;;1.30;;
5285;SDS011;2665;53.112;7.358;2022-09-21T02:13:31;2.20;;;1.20;;
5285;SDS011;2665;53.112;7.358;2022-09-21T02:21:06;2.87;;;1.30;;
5285;SDS011;2665;53.112;7.358;2022-09-21T02:23:41;5.10;;;1.23;;
5285;SDS011;2665;53.112;7.358;2022-09-21T02:26:42;2.67;;;1.30;;
5285;SDS011;2665;53.112;7.358;2022-09-21T02:29:03;2.33;;;1.03;;
5285;SDS011;2665;53.112;7.358;2022-09-21T02:31:43;5.40;;;1.30;;
5285;SDS011;2665;53.112;7.358;2022-09-21T02:34:17;2.63;;;1.63;;
5285;SDS011;2665;53.112;7.358;2022-09-21T02:39:18;2.73;;;1.23;;
5285;SDS011;2665;53.112;7.358;2022-09-21T02:44:26;3.07;;;1.30;;
5285;SDS011;2665;53.112;7.358;2022-09-21T02:49:24;4.03;;;2.00;;
5285;SDS011;2665;53.112;7.358;2022-09-21T02:51:52;2.77;;;1.43;;
5285;SDS011;2665;53.112;7.358;2022-09-21T02:54:23;3.77;;;2.00;;
5285;SDS011;2665;53.112;7.358;2022-09-21T02:56:49;2.30;;;1.60;;
5285;SDS011;2665;53.112;7.358;2022-09-21T02:59:16;3.70;;;1.10;;
5285;SDS011;2665;53.112;7.358;2022-09-21T03:01:42;2.40;;;1.20;;
5285;SDS011;2665;53.112;7.358;2022-09-21T03:04:09;2.90;;;1.10;;
5285;SDS011;2665;53.112;7.358;2022-09-21T03:06:35;2.13;;;0.97;;
5285;SDS011;2665;53.112;7.358;2022-09-21T03:09:02;1.83;;;0.70;;
5285;SDS011;2665;53.112;7.358;2022-09-21T03:11:27;1.90;;;0.70;;
5285;SDS011;2665;53.112;7.358;2022-09-21T03:13:53;2.17;;;1.00;;
5285;SDS011;2665;53.112;7.358;2022-09-21T03:16:19;3.67;;;1.00;;
5285;SDS011;2665;53.112;7.358;2022-09-21T03:18:46;2.10;;;0.90;;
5285;SDS011;2665;53.112;7.358;2022-09-21T03:21:12;2.20;;;1.10;;
5285;SDS011;2665;53.112;7.358;2022-09-21T03:23:38;2.67;;;1.07;;
5285;SDS011;2665;53.112;7.358;2022-09-21T03:26:04;2.03;;;0.97;;
5285;SDS011;2665;53.112;7.358;2022-09-21T03:28:30;2.10;;;1.10;;
5285;SDS011;2665;53.112;7.358;2022-09-21T03:30:56;2.13;;;0.90;;
5285;SDS011;2665;53.112;7.358;2022-09-21T03:33:21;4.13;;;1.07;;
5285;SDS011;2665;53.112;7.358;2022-09-21T03:35:49;2.73;;;1.10;;
5285;SDS011;2665;53.112;7.358;2022-09-21T03:38:15;4.13;;;1.50;;
5285;SDS011;2665;53.112;7.358;2022-09-21T03:40:43;2.20;;;1.30;;
5285;SDS011;2665;53.112;7.358;2022-09-21T03:43:10;3.53;;;1.40;;
5285;SDS011;2665;53.112;7.358;2022-09-21T03:45:36;2.40;;;1.50;;
5285;SDS011;2665;53.112;7.358;2022-09-21T03:48:06;3.00;;;1.77;;
5285;SDS011;2665;53.112;7.358;2022-09-21T03:50:32;2.53;;;1.50;;
5285;SDS011;2665;53.112;7.358;2022-09-21T03:52:58;2.57;;;1.67;;
5285;SDS011;2665;53.112;7.358;2022-09-21T03:55:24;3.27;;;1.47;;
5285;SDS011;2665;53.112;7.358;2022-09-21T03:57:50;3.47;;;1.90;;
5285;SDS011;2665;53.112;7.358;2022-09-21T04:00:16;2.50;;;1.40;;
5285;SDS011;2665;53.112;7.358;2022-09-21T04:02:42;2.17;;;1.20;;
5285;SDS011;2665;53.112;7.358;2022-09-21T04:05:08;4.30;;;1.90;;
5285;SDS011;2665;53.112;7.358;2022-09-21T04:07:36;4.90;;;1.70;;
5285;SDS011;2665;53.112;7.358;2022-09-21T04:10:03;3.67;;;1.43;;
5285;SDS011;2665;53.112;7.358;2022-09-21T04:12:30;2.60;;;1.53;;
5285;SDS011;2665;53.112;7.358;2022-09-21T04:14:58;4.00;;;1.77;;
5285;SDS011;2665;53.112;7.358;2022-09-21T04:17:28;2.40;;;1.67;;
5285;SDS011;2665;53.112;7.358;2022-09-21T04:19:55;2.80;;;1.77;;
5285;SDS011;2665;53.112;7.358;2022-09-21T04:22:20;2.60;;;1.70;;
5285;SDS011;2665;53.112;7.358;2022-09-21T04:24:48;3.47;;;1.60;;
5285;SDS011;2665;53.112;7.358;2022-09-21T04:27:14;3.00;;;1.80;;
5285;SDS011;2665;53.112;7.358;2022-09-21T04:29:40;3.07;;;2.20;;
5285;SDS011;2665;53.112;7.358;2022-09-21T04:32:06;2.77;;;1.57;;
5285;SDS011;2665;53.112;7.358;2022-09-21T04:34:32;3.03;;;1.40;;
5285;SDS011;2665;53.112;7.358;2022-09-21T04:36:57;2.50;;;1.60;;
5285;SDS011;2665;53.112;7.358;2022-09-21T04:39:23;2.33;;;1.23;;
5285;SDS011;2665;53.112;7.358;2022-09-21T04:41:50;2.63;;;1.40;;
5285;SDS011;2665;53.112;7.358;2022-09-21T04:44:15;2.30;;;1.30;;
5285;SDS011;2665;53.112;7.358;2022-09-21T04:46:43;2.23;;;1.23;;
5285;SDS011;2665;53.112;7.358;2022-09-21T04:49:09;2.70;;;1.47;;
5285;SDS011;2665;53.112;7.358;2022-09-21T04:51:34;2.90;;;1.43;;
5285;SDS011;2665;53.112;7.358;2022-09-21T04:54:00;2.40;;;1.20;;
5285;SDS011;2665;53.112;7.358;2022-09-21T04:56:27;4.00;;;2.07;;
5285;SDS011;2665;53.112;7.358;2022-09-21T04:58:52;2.47;;;1.40;;
5285;SDS011;2665;53.112;7.358;2022-09-21T05:01:18;3.63;;;1.90;;
5285;SDS011;2665;53.112;7.358;2022-09-21T05:03:44;2.63;;;1.27;;
5285;SDS011;2665;53.112;7.358;2022-09-21T05:06:10;4.10;;;1.70;;
5285;SDS011;2665;53.112;7.358;2022-09-21T05:08:37;2.40;;;1.53;;
5285;SDS011;2665;53.112;7.358;2022-09-21T05:11:22;2.93;;;1.63;;
5285;SDS011;2665;53.112;7.358;2022-09-21T05:13:48;2.70;;;1.37;;
5285;SDS011;2665;53.112;7.358;2022-09-21T05:16:15;3.13;;;2.13;;
5285;SDS011;2665;53.112;7.358;2022-09-21T05:18:42;2.73;;;1.57;;
5285;SDS011;2665;53.112;7.358;2022-09-21T05:21:08;2.23;;;1.40;;
5285;SDS011;2665;53.112;7.358;2022-09-21T05:23:36;2.40;;;1.37;;
5285;SDS011;2665;53.112;7.358;2022-09-21T05:26:02;2.97;;;1.70;;
5285;SDS011;2665;53.112;7.358;2022-09-21T05:28:28;2.70;;;1.40;;
5285;SDS011;2665;53.112;7.358;2022-09-21T05:31:03;2.30;;;1.20;;
5285;SDS011;2665;53.112;7.358;2022-09-21T05:33:39;2.93;;;1.70;;
5285;SDS011;2665;53.112;7.358;2022-09-21T05:38:54;3.47;;;1.40;;
5285;SDS011;2665;53.112;7.358;2022-09-21T05:41:20;2.67;;;1.30;;
5285;SDS011;2665;53.112;7.358;2022-09-21T05:43:46;1.80;;;0.80;;
5285;SDS011;2665;53.112;7.358;2022-09-21T05:46:17;2.17;;;1.10;;
5285;SDS011;2665;53.112;7.358;2022-09-21T05:49:01;2.70;;;1.40;;
5285;SDS011;2665;53.112;7.358;2022-09-21T06:00:18;2.57;;;0.97;;
5285;SDS011;2665;53.112;7.358;2022-09-21T06:05:40;1.93;;;1.13;;
5285;SDS011;2665;53.112;7.358;2022-09-21T06:08:07;2.00;;;1.20;;
5285;SDS011;2665;53.112;7.358;2022-09-21T06:10:33;2.87;;;0.80;;
5285;SDS011;2665;53.112;7.358;2022-09-21T06:12:59;2.00;;;1.00;;
5285;SDS011;2665;53.112;7.358;2022-09-21T06:15:25;2.33;;;0.80;;
5285;SDS011;2665;53.112;7.358;2022-09-21T06:17:51;1.93;;;0.97;;
5285;SDS011;2665;53.112;7.358;2022-09-21T06:20:16;2.80;;;1.17;;
5285;SDS011;2665;53.112;7.358;2022-09-21T06:22:42;2.37;;;1.10;;
5285;SDS011;2665;53.112;7.358;2022-09-21T06:25:08;2.00;;;1.10;;
5285;SDS011;2665;53.112;7.358;2022-09-21T06:27:34;3.20;;;1.57;;
5285;SDS011;2665;53.112;7.358;2022-09-21T06:29:59;2.73;;;1.00;;
5285;SDS011;2665;53.112;7.358;2022-09-21T06:32:25;2.53;;;0.80;;
5285;SDS011;2665;53.112;7.358;2022-09-21T06:34:51;1.90;;;0.80;;
5285;SDS011;2665;53.112;7.358;2022-09-21T06:37:16;2.40;;;1.10;;
5285;SDS011;2665;53.112;7.358;2022-09-21T06:39:42;4.00;;;0.90;;
5285;SDS011;2665;53.112;7.358;2022-09-21T06:42:08;2.07;;;0.80;;
5285;SDS011;2665;53.112;7.358;2022-09-21T06:44:33;2.10;;;0.90;;
5285;SDS011;2665;53.112;7.358;2022-09-21T06:46:59;2.40;;;1.37;;
5285;SDS011;2665;53.112;7.358;2022-09-21T06:49:24;2.37;;;1.07;;
5285;SDS011;2665;53.112;7.358;2022-09-21T06:51:52;2.00;;;1.20;;
5285;SDS011;2665;53.112;7.358;2022-09-21T06:54:18;7.63;;;2.10;;
5285;SDS011;2665;53.112;7.358;2022-09-21T06:56:44;2.47;;;1.33;;
5285;SDS011;2665;53.112;7.358;2022-09-21T06:59:10;3.00;;;1.33;;
5285;SDS011;2665;53.112;7.358;2022-09-21T07:01:36;2.10;;;0.90;;
5285;SDS011;2665;53.112;7.358;2022-09-21T07:04:02;3.40;;;1.23;;
5285;SDS011;2665;53.112;7.358;2022-09-21T07:06:28;2.37;;;1.20;;
5285;SDS011;2665;53.112;7.358;2022-09-21T07:08:54;2.43;;;1.27;;
5285;SDS011;2665;53.112;7.358;2022-09-21T07:11:21;2.20;;;1.17;;
5285;SDS011;2665;53.112;7.358;2022-09-21T07:13:48;2.70;;;1.30;;
5285;SDS011;2665;53.112;7.358;2022-09-21T07:16:14;3.83;;;1.30;;
5285;SDS011;2665;53.112;7.358;2022-09-21T07:18:40;2.60;;;1.47;;
5285;SDS011;2665;53.112;7.358;2022-09-21T07:21:07;2.77;;;1.40;;
5285;SDS011;2665;53.112;7.358;2022-09-21T07:23:33;2.93;;;1.60;;
5285;SDS011;2665;53.112;7.358;2022-09-21T07:26:00;2.60;;;1.10;;
5285;SDS011;2665;53.112;7.358;2022-09-21T07:28:28;3.37;;;1.30;;
5285;SDS011;2665;53.112;7.358;2022-09-21T07:30:54;4.17;;;1.10;;
5285;SDS011;2665;53.112;7.358;2022-09-21T07:33:21;4.03;;;1.43;;
5285;SDS011;2665;53.112;7.358;2022-09-21T07:35:54;3.30;;;1.40;;
5285;SDS011;2665;53.112;7.358;2022-09-21T07:38:22;2.57;;;1.27;;
5285;SDS011;2665;53.112;7.358;2022-09-21T07:40:48;2.50;;;1.10;;
5285;SDS011;2665;53.112;7.358;2022-09-21T07:43:14;2.40;;;1.30;;
5285;SDS011;2665;53.112;7.358;2022-09-21T07:45:40;2.50;;;1.00;;
5285;SDS011;2665;53.112;7.358;2022-09-21T07:48:06;2.63;;;1.20;;
5285;SDS011;2665;53.112;7.358;2022-09-21T07:50:32;2.53;;;1.00;;
5285;SDS011;2665;53.112;7.358;2022-09-21T07:52:59;4.27;;;1.00;;
5285;SDS011;2665;53.112;7.358;2022-09-21T07:55:26;3.03;;;1.27;;
5285;SDS011;2665;53.112;7.358;2022-09-21T07:57:52;4.13;;;1.07;;
5285;SDS011;2665;53.112;7.358;2022-09-21T08:00:36;1.93;;;0.80;;
5285;SDS011;2665;53.112;7.358;2022-09-21T08:03:02;4.10;;;1.00;;
5285;SDS011;2665;53.112;7.358;2022-09-21T08:05:28;5.00;;;2.07;;
5285;SDS011;2665;53.112;7.358;2022-09-21T08:07:55;1.77;;;0.67;;
5285;SDS011;2665;53.112;7.358;2022-09-21T08:10:21;2.73;;;1.30;;
5285;SDS011;2665;53.112;7.358;2022-09-21T08:12:48;2.30;;;0.90;;
5285;SDS011;2665;53.112;7.358;2022-09-21T08:15:14;1.80;;;0.80;;
5285;SDS011;2665;53.112;7.358;2022-09-21T08:17:39;2.30;;;1.00;;
5285;SDS011;2665;53.112;7.358;2022-09-21T08:20:05;3.83;;;0.80;;
5285;SDS011;2665;53.112;7.358;2022-09-21T08:22:31;2.43;;;1.10;;
5285;SDS011;2665;53.112;7.358;2022-09-21T08:24:57;2.30;;;0.83;;
5285;SDS011;2665;53.112;7.358;2022-09-21T08:27:22;3.43;;;1.20;;
5285;SDS011;2665;53.112;7.358;2022-09-21T08:29:51;4.80;;;1.03;;
5285;SDS011;2665;53.112;7.358;2022-09-21T08:32:16;3.00;;;0.90;;
5285;SDS011;2665;53.112;7.358;2022-09-21T08:34:42;2.27;;;0.80;;
5285;SDS011;2665;53.112;7.358;2022-09-21T08:37:08;2.07;;;0.80;;
5285;SDS011;2665;53.112;7.358;2022-09-21T08:39:33;5.00;;;0.90;;
5285;SDS011;2665;53.112;7.358;2022-09-21T08:42:03;2.57;;;1.40;;
5285;SDS011;2665;53.112;7.358;2022-09-21T08:47:23;1.70;;;0.60;;
5285;SDS011;2665;53.112;7.358;2022-09-21T08:50:54;3.50;;;0.70;;
5285;SDS011;2665;53.112;7.358;2022-09-21T08:53:18;1.90;;;1.00;;
5285;SDS011;2665;53.112;7.358;2022-09-21T08:55:50;2.83;;;1.00;;
5285;SDS011;2665;53.112;7.358;2022-09-21T08:58:23;3.90;;;0.97;;
5285;SDS011;2665;53.112;7.358;2022-09-21T09:12:35;3.13;;;0.70;;
5285;SDS011;2665;53.112;7.358;2022-09-21T09:18:11;3.37;;;1.23;;
5285;SDS011;2665;53.112;7.358;2022-09-21T15:35:58;1.43;;;0.50;;
5285;SDS011;2665;53.112;7.358;2022-09-21T15:38:26;2.27;;;0.80;;
5285;SDS011;2665;53.112;7.358;2022-09-21T15:40:54;3.90;;;0.87;;
5285;SDS011;2665;53.112;7.358;2022-09-21T15:43:19;2.63;;;0.60;;
5285;SDS011;2665;53.112;7.358;2022-09-21T15:48:32;1.60;;;0.70;;
5285;SDS011;2665;53.112;7.358;2022-09-21T15:54:00;1.77;;;0.60;;
5285;SDS011;2665;53.112;7.358;2022-09-21T15:56:33;2.00;;;1.10;;
5285;SDS011;2665;53.112;7.358;2022-09-21T15:59:05;2.23;;;0.67;;
5285;SDS011;2665;53.112;7.358;2022-09-21T16:01:37;1.60;;;0.60;;
5285;SDS011;2665;53.112;7.358;2022-09-21T16:04:06;2.37;;;0.60;;
5285;SDS011;2665;53.112;7.358;2022-09-21T16:06:36;2.33;;;0.77;;
5285;SDS011;2665;53.112;7.358;2022-09-21T16:11:58;2.57;;;0.53;;
5285;SDS011;2665;53.112;7.358;2022-09-21T16:14:23;2.57;;;1.20;;
5285;SDS011;2665;53.112;7.358;2022-09-21T16:19:41;2.93;;;1.53;;
5285;SDS011;2665;53.112;7.358;2022-09-21T16:22:11;3.10;;;0.60;;
5285;SDS011;2665;53.112;7.358;2022-09-21T16:24:48;2.53;;;0.80;;
5285;SDS011;2665;53.112;7.358;2022-09-21T16:27:17;1.93;;;0.60;;
5285;SDS011;2665;53.112;7.358;2022-09-21T16:29:45;2.87;;;0.60;;
5285;SDS011;2665;53.112;7.358;2022-09-21T16:34:44;1.70;;;0.60;;
5285;SDS011;2665;53.112;7.358;2022-09-21T16:42:15;1.93;;;0.70;;
5285;SDS011;2665;53.112;7.358;2022-09-21T16:44:41;3.20;;;0.60;;
5285;SDS011;2665;53.112;7.358;2022-09-21T16:47:13;1.50;;;0.63;;
5285;SDS011;2665;53.112;7.358;2022-09-21T16:49:50;3.23;;;0.60;;
5285;SDS011;2665;53.112;7.358;2022-09-21T16:52:20;1.70;;;0.50;;
5285;SDS011;2665;53.112;7.358;2022-09-21T16:54:47;2.67;;;0.60;;
5285;SDS011;2665;53.112;7.358;2022-09-21T16:57:13;5.30;;;2.20;;
5285;SDS011;2665;53.112;7.358;2022-09-21T16:59:40;2.53;;;0.70;;
5285;SDS011;2665;53.112;7.358;2022-09-21T17:02:06;3.70;;;0.60;;
5285;SDS011;2665;53.112;7.358;2022-09-21T17:04:34;2.03;;;0.70;;
5285;SDS011;2665;53.112;7.358;2022-09-21T17:07:00;3.33;;;0.90;;
5285;SDS011;2665;53.112;7.358;2022-09-21T17:09:30;1.70;;;0.53;;
5285;SDS011;2665;53.112;7.358;2022-09-21T17:11:57;2.10;;;0.60;;
5285;SDS011;2665;53.112;7.358;2022-09-21T17:14:25;4.50;;;0.80;;
5285;SDS011;2665;53.112;7.358;2022-09-21T17:16:52;3.90;;;0.80;;
5285;SDS011;2665;53.112;7.358;2022-09-21T17:19:19;1.80;;;0.70;;
5285;SDS011;2665;53.112;7.358;2022-09-21T17:21:46;1.70;;;0.67;;
5285;SDS011;2665;53.112;7.358;2022-09-21T17:24:12;1.50;;;0.60;;
5285;SDS011;2665;53.112;7.358;2022-09-21T17:26:40;2.70;;;0.60;;
5285;SDS011;2665;53.112;7.358;2022-09-21T17:29:19;3.00;;;0.70;;
5285;SDS011;2665;53.112;7.358;2022-09-21T17:31:47;2.23;;;0.70;;
5285;SDS011;2665;53.112;7.358;2022-09-21T17:34:15;2.70;;;0.60;;
5285;SDS011;2665;53.112;7.358;2022-09-21T17:36:41;1.80;;;0.70;;
5285;SDS011;2665;53.112;7.358;2022-09-21T17:39:07;3.30;;;0.83;;
5285;SDS011;2665;53.112;7.358;2022-09-21T17:41:37;1.80;;;0.70;;
5285;SDS011;2665;53.112;7.358;2022-09-21T17:44:15;2.60;;;0.80;;
5285;SDS011;2665;53.112;7.358;2022-09-21T17:46:45;1.40;;;0.60;;
5285;SDS011;2665;53.112;7.358;2022-09-21T17:49:12;1.57;;;0.60;;
5285;SDS011;2665;53.112;7.358;2022-09-21T17:51:38;2.47;;;0.80;;
5285;SDS011;2665;53.112;7.358;2022-09-21T17:54:23;3.00;;;1.07;;
5285;SDS011;2665;53.112;7.358;2022-09-21T17:57:05;3.20;;;1.13;;
5285;SDS011;2665;53.112;7.358;2022-09-21T17:59:33;4.03;;;1.17;;
5285;SDS011;2665;53.112;7.358;2022-09-21T18:02:01;2.90;;;1.00;;
5285;SDS011;2665;53.112;7.358;2022-09-21T18:04:27;2.30;;;1.27;;
5285;SDS011;2665;53.112;7.358;2022-09-21T18:06:58;5.00;;;1.27;;
5285;SDS011;2665;53.112;7.358;2022-09-21T18:09:25;2.13;;;1.00;;
5285;SDS011;2665;53.112;7.358;2022-09-21T18:12:00;2.13;;;1.07;;
5285;SDS011;2665;53.112;7.358;2022-09-21T18:17:18;3.57;;;1.20;;
5285;SDS011;2665;53.112;7.358;2022-09-21T18:24:51;3.77;;;0.97;;
5285;SDS011;2665;53.112;7.358;2022-09-21T18:27:20;2.90;;;1.00;;
5285;SDS011;2665;53.112;7.358;2022-09-21T18:29:47;3.13;;;1.43;;
5285;SDS011;2665;53.112;7.358;2022-09-21T18:45:27;6.00;;;1.10;;
5285;SDS011;2665;53.112;7.358;2022-09-21T18:50:42;6.33;;;0.63;;
5285;SDS011;2665;53.112;7.358;2022-09-21T18:53:22;1.67;;;0.77;;
5285;SDS011;2665;53.112;7.358;2022-09-21T18:55:50;6.90;;;1.10;;
5285;SDS011;2665;53.112;7.358;2022-09-21T18:58:16;2.00;;;1.00;;
5285;SDS011;2665;53.112;7.358;2022-09-21T19:00:42;4.73;;;1.60;;
5285;SDS011;2665;53.112;7.358;2022-09-21T19:03:12;2.27;;;0.93;;
5285;SDS011;2665;53.112;7.358;2022-09-21T19:05:41;3.50;;;0.90;;
5285;SDS011;2665;53.112;7.358;2022-09-21T19:10:43;4.03;;;1.20;;
5285;SDS011;2665;53.112;7.358;2022-09-21T19:31:28;2.90;;;1.23;;
5285;SDS011;2665;53.112;7.358;2022-09-21T19:33:54;3.70;;;1.50;;
5285;SDS011;2665;53.112;7.358;2022-09-21T19:36:21;4.47;;;1.30;;
5285;SDS011;2665;53.112;7.358;2022-09-21T19:38:48;4.93;;;1.30;;
5285;SDS011;2665;53.112;7.358;2022-09-21T19:41:36;2.77;;;1.27;;
5285;SDS011;2665;53.112;7.358;2022-09-21T19:49:17;2.37;;;0.93;;
5285;SDS011;2665;53.112;7.358;2022-09-21T19:51:45;1.87;;;0.80;;
5285;SDS011;2665;53.112;7.358;2022-09-21T19:54:13;2.50;;;0.80;;
5285;SDS011;2665;53.112;7.358;2022-09-21T19:56:58;1.97;;;1.03;;
5285;SDS011;2665;53.112;7.358;2022-09-21T19:59:43;2.00;;;0.60;;
5285;SDS011;2665;53.112;7.358;2022-09-21T20:02:11;1.60;;;0.70;;
5285;SDS011;2665;53.112;7.358;2022-09-21T20:04:46;3.27;;;0.87;;
5285;SDS011;2665;53.112;7.358;2022-09-21T20:07:21;2.77;;;1.07;;
5285;SDS011;2665;53.112;7.358;2022-09-21T20:10:22;1.80;;;0.80;;
5285;SDS011;2665;53.112;7.358;2022-09-21T20:12:49;1.60;;;0.60;;
5285;SDS011;2665;53.112;7.358;2022-09-21T20:15:22;2.80;;;1.00;;
5285;SDS011;2665;53.112;7.358;2022-09-21T20:18:08;1.70;;;0.50;;
5285;SDS011;2665;53.112;7.358;2022-09-21T20:20:35;1.60;;;0.70;;
5285;SDS011;2665;53.112;7.358;2022-09-21T20:23:02;1.97;;;0.90;;
5285;SDS011;2665;53.112;7.358;2022-09-21T20:28:31;2.07;;;1.10;;
5285;SDS011;2665;53.112;7.358;2022-09-21T20:30:58;2.97;;;1.00;;
5285;SDS011;2665;53.112;7.358;2022-09-21T20:33:25;1.40;;;0.60;;
5285;SDS011;2665;53.112;7.358;2022-09-21T20:35:51;4.03;;;1.10;;
5285;SDS011;2665;53.112;7.358;2022-09-21T20:38:19;1.90;;;0.90;;
5285;SDS011;2665;53.112;7.358;2022-09-21T20:40:45;1.93;;;0.77;;
5285;SDS011;2665;53.112;7.358;2022-09-21T20:43:12;3.00;;;1.00;;
5285;SDS011;2665;53.112;7.358;2022-09-21T20:45:38;3.70;;;1.00;;
5285;SDS011;2665;53.112;7.358;2022-09-21T20:48:05;1.70;;;0.80;;
5285;SDS011;2665;53.112;7.358;2022-09-21T20:50:38;2.37;;;1.10;;
5285;SDS011;2665;53.112;7.358;2022-09-21T20:53:04;2.40;;;1.13;;
5285;SDS011;2665;53.112;7.358;2022-09-21T20:55:31;2.50;;;1.27;;
5285;SDS011;2665;53.112;7.358;2022-09-21T20:57:57;5.63;;;1.37;;
5285;SDS011;2665;53.112;7.358;2022-09-21T21:00:23;3.50;;;1.07;;
5285;SDS011;2665;53.112;7.358;2022-09-21T21:02:50;2.00;;;0.90;;
5285;SDS011;2665;53.112;7.358;2022-09-21T21:05:16;4.03;;;1.00;;
5285;SDS011;2665;53.112;7.358;2022-09-21T21:07:46;2.70;;;1.17;;
5285;SDS011;2665;53.112;7.358;2022-09-21T21:10:12;2.60;;;1.20;;
5285;SDS011;2665;53.112;7.358;2022-09-21T21:12:39;3.70;;;0.90;;
5285;SDS011;2665;53.112;7.358;2022-09-21T21:15:06;2.70;;;0.93;;
5285;SDS011;2665;53.112;7.358;2022-09-21T21:17:32;2.60;;;1.10;;
5285;SDS011;2665;53.112;7.358;2022-09-21T21:19:59;4.00;;;1.30;;
5285;SDS011;2665;53.112;7.358;2022-09-21T21:22:26;3.60;;;1.50;;
5285;SDS011;2665;53.112;7.358;2022-09-21T21:24:52;2.90;;;1.40;;
5285;SDS011;2665;53.112;7.358;2022-09-21T21:27:19;2.90;;;1.57;;
5285;SDS011;2665;53.112;7.358;2022-09-21T21:29:45;3.33;;;1.60;;
5285;SDS011;2665;53.112;7.358;2022-09-21T21:32:13;2.10;;;1.20;;
5285;SDS011;2665;53.112;7.358;2022-09-21T21:34:40;2.70;;;1.67;;
5285;SDS011;2665;53.112;7.358;2022-09-21T21:37:06;3.60;;;1.80;;
5285;SDS011;2665;53.112;7.358;2022-09-21T21:39:33;3.73;;;1.60;;
5285;SDS011;2665;53.112;7.358;2022-09-21T21:41:59;2.20;;;1.20;;
5285;SDS011;2665;53.112;7.358;2022-09-21T21:44:25;2.30;;;1.23;;
5285;SDS011;2665;53.112;7.358;2022-09-21T21:46:51;2.33;;;1.33;;
5285;SDS011;2665;53.112;7.358;2022-09-21T21:49:18;2.33;;;1.07;;
5285;SDS011;2665;53.112;7.358;2022-09-21T21:51:44;2.60;;;1.20;;
5285;SDS011;2665;53.112;7.358;2022-09-21T21:54:13;5.37;;;1.50;;
5285;SDS011;2665;53.112;7.358;2022-09-21T21:56:39;2.60;;;1.70;;
5285;SDS011;2665;53.112;7.358;2022-09-21T21:59:05;4.50;;;1.67;;
5285;SDS011;2665;53.112;7.358;2022-09-21T22:01:31;3.30;;;2.30;;
5285;SDS011;2665;53.112;7.358;2022-09-21T22:03:58;2.73;;;1.57;;
5285;SDS011;2665;53.112;7.358;2022-09-21T22:06:25;3.00;;;2.10;;
5285;SDS011;2665;53.112;7.358;2022-09-21T22:08:51;4.20;;;2.40;;
5285;SDS011;2665;53.112;7.358;2022-09-21T22:11:17;3.73;;;2.17;;
5285;SDS011;2665;53.112;7.358;2022-09-21T22:13:46;3.07;;;1.97;;
5285;SDS011;2665;53.112;7.358;2022-09-21T22:16:13;3.00;;;1.93;;
5285;SDS011;2665;53.112;7.358;2022-09-21T22:18:40;2.73;;;1.60;;
5285;SDS011;2665;53.112;7.358;2022-09-21T22:21:07;3.80;;;2.07;;
5285;SDS011;2665;53.112;7.358;2022-09-21T22:23:34;5.80;;;1.93;;
5285;SDS011;2665;53.112;7.358;2022-09-21T22:26:07;3.10;;;1.50;;
5285;SDS011;2665;53.112;7.358;2022-09-21T22:28:35;2.20;;;1.60;;
5285;SDS011;2665;53.112;7.358;2022-09-21T22:31:01;3.43;;;1.50;;
5285;SDS011;2665;53.112;7.358;2022-09-21T22:33:31;2.97;;;1.50;;
5285;SDS011;2665;53.112;7.358;2022-09-21T22:36:07;2.77;;;1.63;;
5285;SDS011;2665;53.112;7.358;2022-09-21T22:38:34;5.93;;;1.80;;
5285;SDS011;2665;53.112;7.358;2022-09-21T22:41:01;2.30;;;1.23;;
5285;SDS011;2665;53.112;7.358;2022-09-21T22:43:27;3.50;;;1.40;;
5285;SDS011;2665;53.112;7.358;2022-09-21T22:45:53;2.40;;;1.40;;
5285;SDS011;2665;53.112;7.358;2022-09-21T22:48:19;2.40;;;1.47;;
5285;SDS011;2665;53.112;7.358;2022-09-21T22:50:45;2.73;;;1.80;;
5285;SDS011;2665;53.112;7.358;2022-09-21T22:53:11;4.90;;;1.47;;
5285;SDS011;2665;53.112;7.358;2022-09-21T22:55:38;3.20;;;1.53;;
5285;SDS011;2665;53.112;7.358;2022-09-21T22:58:04;3.00;;;1.27;;
5285;SDS011;2665;53.112;7.358;2022-09-21T23:00:30;2.67;;;1.60;;
5285;SDS011;2665;53.112;7.358;2022-09-21T23:02:56;4.57;;;1.53;;
5285;SDS011;2665;53.112;7.358;2022-09-21T23:05:22;3.50;;;1.80;;
5285;SDS011;2665;53.112;7.358;2022-09-21T23:07:52;2.67;;;1.37;;
5285;SDS011;2665;53.112;7.358;2022-09-21T23:10:19;4.23;;;2.23;;
5285;SDS011;2665;53.112;7.358;2022-09-21T23:12:45;3.50;;;2.00;;
5285;SDS011;2665;53.112;7.358;2022-09-21T23:15:14;2.67;;;1.37;;
5285;SDS011;2665;53.112;7.358;2022-09-21T23:17:41;5.60;;;1.47;;
5285;SDS011;2665;53.112;7.358;2022-09-21T23:20:08;4.20;;;1.97;;
5285;SDS011;2665;53.112;7.358;2022-09-21T23:22:34;3.57;;;1.77;;
5285;SDS011;2665;53.112;7.358;2022-09-21T23:25:00;3.20;;;1.80;;
5285;SDS011;2665;53.112;7.358;2022-09-21T23:27:26;4.37;;;1.90;;
5285;SDS011;2665;53.112;7.358;2022-09-21T23:29:54;3.13;;;1.87;;
5285;SDS011;2665;53.112;7.358;2022-09-21T23:32:20;2.97;;;1.63;;
5285;SDS011;2665;53.112;7.358;2022-09-21T23:34:46;3.10;;;1.53;;
5285;SDS011;2665;53.112;7.358;2022-09-21T23:37:12;3.00;;;1.80;;
5285;SDS011;2665;53.112;7.358;2022-09-21T23:39:38;5.03;;;1.80;;
5285;SDS011;2665;53.112;7.358;2022-09-21T23:42:05;2.87;;;1.60;;
5285;SDS011;2665;53.112;7.358;2022-09-21T23:44:31;2.37;;;1.37;;
5285;SDS011;2665;53.112;7.358;2022-09-21T23:46:58;3.43;;;2.10;;
5285;SDS011;2665;53.112;7.358;2022-09-21T23:49:24;3.67;;;1.77;;
5285;SDS011;2665;53.112;7.358;2022-09-21T23:51:50;2.87;;;1.50;;